Time;durP1;ratioP1;P1;durP2;ratioP2;P2;SDS_P1;SDS_P2;PMS_P1;PMS_P2;Temp;Humidity;BMP_temperature;BMP_pressure;BME280_temperature;BME280_humidity;BME280_pressure;Samples;Min_cycle;Max_cycle;Signal;HPM_P1;HPM_P2
2023/03/28 00:01:09;;;;;;;8.10;2.22;;;3.00;88.30;;;;;;5042253;28;20216;-45
2023/03/28 00:03:38;;;;;;;13.88;2.13;;;3.10;88.50;;;;;;5033320;28;20041;-47
2023/03/28 00:06:09;;;;;;;8.48;1.65;;;3.10;87.50;;;;;;5034114;28;20033;-45
2023/03/28 00:08:38;;;;;;;8.77;2.15;;;3.20;86.60;;;;;;5032292;28;20064;-46
2023/03/28 00:11:23;;;;;;;9.05;3.92;;;3.00;86.40;;;;;;5034180;28;20017;-46
2023/03/28 00:13:59;;;;;;;5.07;1.60;;;3.10;86.60;;;;;;5032810;28;20042;-46
2023/03/28 00:16:46;;;;;;;10.77;2.28;;;3.00;86.40;;;;;;5034025;28;20340;-45
2023/03/28 00:19:31;;;;;;;7.55;1.40;;;3.00;86.30;;;;;;5032781;28;20449;-46
2023/03/28 00:21:58;;;;;;;4.57;1.67;;;3.00;86.30;;;;;;5033378;28;20442;-45
2023/03/28 00:24:25;;;;;;;10.40;2.60;;;2.90;86.60;;;;;;5047935;28;20053;-48
2023/03/28 00:26:53;;;;;;;7.75;1.80;;;2.90;86.50;;;;;;5053699;28;20033;-46
2023/03/28 00:29:24;;;;;;;9.95;2.25;;;2.90;86.70;;;;;;5039935;28;20083;-46
2023/03/28 00:31:52;;;;;;;11.20;2.05;;;2.80;86.70;;;;;;5033693;28;20029;-48
2023/03/28 00:34:21;;;;;;;7.22;1.60;;;2.80;87.10;;;;;;5033842;28;20035;-46
2023/03/28 00:36:49;;;;;;;10.70;2.63;;;2.70;87.10;;;;;;5033415;28;20083;-46
2023/03/28 00:39:15;;;;;;;10.27;1.92;;;2.70;87.20;;;;;;5032548;28;20065;-46
2023/03/28 00:41:43;;;;;;;11.02;1.92;;;2.80;87.50;;;;;;5049553;28;20045;-46
2023/03/28 00:44:40;;;;;;;10.13;1.52;;;2.80;87.40;;;;;;5052361;28;20335;-46
2023/03/28 00:47:25;;;;;;;8.63;1.83;;;2.90;87.30;;;;;;5053325;28;20029;-46
2023/03/28 00:50:02;;;;;;;10.85;1.95;;;2.90;87.00;;;;;;5045721;28;20144;-45
2023/03/28 00:52:34;;;;;;;6.15;1.70;;;2.90;86.70;;;;;;5032381;28;20339;-46
2023/03/28 00:55:05;;;;;;;7.60;1.95;;;2.80;86.20;;;;;;5049025;28;20032;-45
2023/03/28 00:57:37;;;;;;;9.38;3.65;;;2.80;86.00;;;;;;5048550;28;20041;-49
2023/03/28 01:00:11;;;;;;;11.63;2.17;;;2.90;86.10;;;;;;5032924;28;20029;-46
2023/03/28 01:02:40;;;;;;;9.23;1.58;;;3.00;86.50;;;;;;5032703;28;20467;-53
2023/03/28 01:05:08;;;;;;;6.35;1.85;;;3.00;87.00;;;;;;5032950;28;20017;-48
2023/03/28 01:07:44;;;;;;;9.68;1.85;;;2.80;87.10;;;;;;5032424;28;20037;-49
2023/03/28 01:10:11;;;;;;;5.22;1.40;;;2.70;88.00;;;;;;5032221;28;20033;-53
2023/03/28 01:12:41;;;;;;;10.82;1.85;;;2.70;88.50;;;;;;5033001;28;20065;-48
2023/03/28 01:15:09;;;;;;;9.45;1.15;;;2.70;88.70;;;;;;5031958;28;20037;-51
2023/03/28 01:17:37;;;;;;;5.32;1.23;;;2.70;88.80;;;;;;5015517;28;20463;-51
2023/03/28 01:20:45;;;;;;;8.25;1.98;;;2.70;88.90;;;;;;5032964;28;20427;-49
2023/03/28 01:23:36;;;;;;;12.43;1.40;;;2.70;88.80;;;;;;5032592;28;20029;-52
2023/03/28 01:26:22;;;;;;;5.05;1.30;;;2.70;88.70;;;;;;5031824;28;20448;-47
2023/03/28 01:29:25;;;;;;;12.85;1.48;;;2.70;88.80;;;;;;5032804;28;20104;-52
2023/03/28 01:32:18;;;;;;;10.85;2.13;;;2.80;89.00;;;;;;5033251;28;20030;-53
2023/03/28 01:35:17;;;;;;;13.25;2.25;;;2.90;89.10;;;;;;5032773;28;20013;-52
2023/03/28 01:38:06;;;;;;;;;;;2.90;89.10;;;;;;5032997;28;20044;-49
2023/03/28 01:40:38;;;;;;;9.30;1.70;;;3.00;89.00;;;;;;5032672;28;19906;-49
2023/03/28 01:43:44;;;;;;;5.97;1.15;;;3.10;88.30;;;;;;5032597;28;20116;-50
2023/03/28 01:46:29;;;;;;;6.80;1.50;;;3.00;87.90;;;;;;5032068;28;20037;-49
2023/03/28 01:49:21;;;;;;;7.60;1.95;;;2.90;88.30;;;;;;5032441;28;20029;-52
2023/03/28 01:51:49;;;;;;;7.65;1.23;;;2.90;88.60;;;;;;5032613;28;20474;-52
2023/03/28 01:54:34;;;;;;;9.98;1.40;;;2.90;88.60;;;;;;5031520;28;20120;-52
2023/03/28 01:57:22;;;;;;;9.18;1.67;;;2.80;88.90;;;;;;5032760;28;20029;-52
2023/03/28 02:00:30;;;;;;;6.28;1.75;;;2.70;88.80;;;;;;5031119;28;20025;-54
2023/03/28 02:03:17;;;;;;;12.23;1.53;;;2.70;88.60;;;;;;5032698;28;20367;-53
2023/03/28 02:05:45;;;;;;;10.95;2.00;;;2.60;88.50;;;;;;5032338;28;20260;-49
2023/03/28 02:08:13;;;;;;;15.48;2.72;;;2.60;88.40;;;;;;5032432;28;20505;-49
2023/03/28 02:10:43;;;;;;;12.43;1.63;;;2.60;88.20;;;;;;5031492;28;20348;-47
2023/03/28 02:13:16;;;;;;;5.93;1.25;;;2.60;88.10;;;;;;5031316;28;20029;-47
2023/03/28 02:15:49;;;;;;;7.80;1.52;;;2.50;88.00;;;;;;5031322;28;20475;-46
2023/03/28 02:18:22;;;;;;;6.85;1.60;;;2.60;88.00;;;;;;5031062;28;20040;-48
2023/03/28 02:21:00;;;;;;;8.70;1.55;;;2.60;88.00;;;;;;5034076;28;20040;-49
2023/03/28 02:23:41;;;;;;;13.43;1.83;;;2.60;88.00;;;;;;5034971;28;20670;-48
2023/03/28 02:26:07;;;;;;;10.82;2.13;;;2.60;88.20;;;;;;5035100;28;20041;-47
2023/03/28 02:28:37;;;;;;;10.18;1.70;;;2.70;88.30;;;;;;5036093;28;20029;-46
2023/03/28 02:31:06;;;;;;;8.50;2.17;;;2.60;88.10;;;;;;5035164;28;20060;-47
2023/03/28 02:33:39;;;;;;;15.30;2.10;;;2.60;88.30;;;;;;5036136;28;20359;-47
2023/03/28 02:36:16;;;;;;;14.15;1.92;;;2.60;88.30;;;;;;5034645;28;20060;-46
2023/03/28 02:39:07;;;;;;;8.98;1.77;;;2.70;88.50;;;;;;5035773;28;20095;-46
2023/03/28 02:42:04;;;;;;;11.00;1.67;;;2.70;88.30;;;;;;5035768;28;20813;-47
2023/03/28 02:44:54;;;;;;;18.38;3.65;;;2.60;88.20;;;;;;5034210;28;20080;-47
2023/03/28 02:47:57;;;;;;;16.08;3.63;;;2.70;88.20;;;;;;5035721;28;20351;-47
2023/03/28 02:50:28;;;;;;;11.30;3.22;;;2.60;88.40;;;;;;5035635;28;20696;-47
2023/03/28 02:53:54;;;;;;;9.10;1.65;;;2.70;88.50;;;;;;5035338;28;20100;-46
2023/03/28 02:56:42;;;;;;;13.95;2.13;;;2.70;88.50;;;;;;4991012;28;20030;-46
2023/03/28 02:59:14;;;;;;;10.45;1.70;;;2.70;88.50;;;;;;5032434;28;20083;-49
2023/03/28 03:01:46;;;;;;;9.15;1.65;;;2.70;88.30;;;;;;5035688;28;20152;-47
2023/03/28 03:04:12;;;;;;;12.82;2.70;;;2.60;88.20;;;;;;5035496;28;20033;-46
2023/03/28 03:06:38;;;;;;;10.25;1.58;;;2.60;88.30;;;;;;5034949;28;20041;-46
2023/03/28 03:09:07;;;;;;;15.82;2.22;;;2.60;88.40;;;;;;5034122;28;20029;-45
2023/03/28 03:11:33;;;;;;;7.32;2.10;;;2.60;88.40;;;;;;5033904;28;20030;-47
2023/03/28 03:14:00;;;;;;;7.72;1.50;;;2.60;88.50;;;;;;5035289;28;20029;-48
2023/03/28 03:16:29;;;;;;;6.32;1.88;;;2.60;88.50;;;;;;5054946;28;20171;-46
2023/03/28 03:18:58;;;;;;;8.63;1.83;;;2.50;88.60;;;;;;5054309;28;20114;-50
2023/03/28 03:21:24;;;;;;;11.00;1.90;;;2.60;88.80;;;;;;5055204;28;20028;-47
2023/03/28 03:23:52;;;;;;;6.50;1.45;;;2.60;88.90;;;;;;5034296;28;20494;-46
2023/03/28 03:26:18;;;;;;;10.35;2.03;;;2.60;89.00;;;;;;5034860;28;20025;-50
2023/03/28 03:28:45;;;;;;;13.25;2.25;;;2.60;89.20;;;;;;5034978;28;20099;-46
2023/03/28 03:31:11;;;;;;;10.60;2.45;;;2.70;89.50;;;;;;5034209;28;20041;-56
2023/03/28 03:33:44;;;;;;;9.43;1.58;;;2.70;89.90;;;;;;5037238;28;20362;-58
2023/03/28 03:36:16;;;;;;;18.90;4.18;;;2.70;90.20;;;;;;5054555;28;20039;-57
2023/03/28 03:38:46;;;;;;;12.68;3.08;;;2.80;90.60;;;;;;5050923;28;20038;-49
2023/03/28 03:41:13;;;;;;;8.57;2.28;;;2.90;90.70;;;;;;5034646;28;20030;-55
2023/03/28 03:43:41;;;;;;;11.73;2.13;;;2.90;90.80;;;;;;5048031;28;20056;-49
2023/03/28 03:46:13;;;;;;;10.07;1.98;;;2.90;90.70;;;;;;5054749;28;20031;-53
2023/03/28 03:48:39;;;;;;;8.02;1.95;;;2.90;90.70;;;;;;5054083;28;20056;-48
2023/03/28 03:51:06;;;;;;;20.48;3.95;;;2.90;90.70;;;;;;5046749;28;20100;-53
2023/03/28 03:53:35;;;;;;;10.73;2.13;;;2.80;90.60;;;;;;5034411;28;20025;-48
2023/03/28 03:56:04;;;;;;;16.73;2.80;;;2.80;90.70;;;;;;5034572;28;20030;-50
2023/03/28 03:58:32;;;;;;;8.77;1.67;;;2.80;90.60;;;;;;5050249;28;20443;-52
2023/03/28 04:00:59;;;;;;;9.48;3.05;;;2.70;90.60;;;;;;5033774;28;20025;-55
2023/03/28 04:03:25;;;;;;;23.63;3.38;;;2.70;90.50;;;;;;5045392;28;20029;-48
2023/03/28 04:05:56;;;;;;;14.60;3.30;;;2.60;90.50;;;;;;5033652;28;20025;-50
2023/03/28 04:08:24;;;;;;;7.38;2.65;;;2.60;90.40;;;;;;5048617;28;20039;-52
2023/03/28 04:10:52;;;;;;;7.72;1.33;;;2.60;90.50;;;;;;5052828;28;20029;-48
2023/03/28 04:13:19;;;;;;;10.13;1.67;;;2.70;90.60;;;;;;5041626;28;20029;-47
2023/03/28 04:15:47;;;;;;;10.60;2.03;;;2.70;90.60;;;;;;5034031;28;20025;-54
2023/03/28 04:18:19;;;;;;;13.20;2.28;;;2.70;90.60;;;;;;5040195;28;20059;-47
2023/03/28 04:21:01;;;;;;;10.75;1.83;;;2.70;90.50;;;;;;5034697;28;20041;-49
2023/03/28 04:23:31;;;;;;;10.63;1.50;;;2.70;90.30;;;;;;5034243;28;20437;-53
2023/03/28 04:25:56;;;;;;;;;;;2.60;90.30;;;;;;5044297;28;20033;-49
2023/03/28 04:28:26;;;;;;;11.95;2.03;;;2.70;90.40;;;;;;5048082;28;20016;-47
2023/03/28 04:30:57;;;;;;;5.40;1.80;;;2.70;90.30;;;;;;5050156;28;20427;-47
2023/03/28 04:33:24;;;;;;;6.95;2.30;;;2.80;90.30;;;;;;5037917;28;20033;-51
2023/03/28 04:35:58;;;;;;;7.25;1.58;;;2.80;90.20;;;;;;5032984;28;20032;-49
2023/03/28 04:38:28;;;;;;;6.55;1.83;;;2.80;90.20;;;;;;5036370;28;20041;-53
2023/03/28 04:41:00;;;;;;;6.32;2.17;;;2.80;90.00;;;;;;5039817;28;20033;-50
2023/03/28 04:43:30;;;;;;;6.45;1.95;;;2.90;90.10;;;;;;5046864;28;20033;-51
2023/03/28 04:45:57;;;;;;;;;;;2.90;90.10;;;;;;5045965;28;20029;-54
2023/03/28 04:48:25;;;;;;;9.30;1.92;;;2.90;90.00;;;;;;5051210;28;19986;-52
2023/03/28 04:51:12;;;;;;;8.88;1.77;;;2.90;89.90;;;;;;5052121;28;20025;-50
2023/03/28 04:53:39;;;;;;;9.13;1.70;;;2.80;89.70;;;;;;5035483;28;20045;-51
2023/03/28 04:56:07;;;;;;;10.20;1.90;;;2.70;89.60;;;;;;5040339;28;20060;-50
2023/03/28 04:58:35;;;;;;;8.85;1.30;;;2.60;89.70;;;;;;5044175;28;20135;-47
2023/03/28 05:01:02;;;;;;;10.63;1.50;;;2.50;89.80;;;;;;5037642;28;20040;-48
2023/03/28 05:03:30;;;;;;;7.07;1.73;;;2.50;89.70;;;;;;5049108;28;20028;-46
2023/03/28 05:05:57;;;;;;;10.40;1.85;;;2.40;89.70;;;;;;5051533;28;20021;-50
2023/03/28 05:08:28;;;;;;;8.75;1.35;;;2.40;89.90;;;;;;5050671;28;20025;-48
2023/03/28 05:10:54;;;;;;;8.45;1.70;;;2.30;89.80;;;;;;5033773;28;20026;-47
2023/03/28 05:13:21;;;;;;;9.15;2.30;;;2.30;89.90;;;;;;5051178;28;20493;-47
2023/03/28 05:15:49;;;;;;;8.43;1.67;;;2.30;89.90;;;;;;5033789;28;20052;-47
2023/03/28 05:18:17;;;;;;;7.00;1.85;;;2.30;89.90;;;;;;5051847;28;20100;-48
2023/03/28 05:20:43;;;;;;;8.13;2.33;;;2.20;89.90;;;;;;5052896;28;20086;-47
2023/03/28 05:23:09;;;;;;;7.28;1.65;;;2.20;89.80;;;;;;5045153;28;20045;-47
2023/03/28 05:25:36;;;;;;;12.18;2.38;;;2.10;89.80;;;;;;5032819;28;20056;-46
2023/03/28 05:28:03;;;;;;;6.00;1.80;;;2.20;89.80;;;;;;5032280;28;20044;-46
2023/03/28 05:30:30;;;;;;;6.15;2.05;;;2.20;89.70;;;;;;5047886;28;20481;-46
2023/03/28 05:32:58;;;;;;;8.75;2.70;;;2.10;89.50;;;;;;5032332;28;20403;-46
2023/03/28 05:35:26;;;;;;;14.40;2.58;;;2.10;89.50;;;;;;5031627;28;20029;-46
2023/03/28 05:37:55;;;;;;;8.25;2.30;;;2.10;89.30;;;;;;5032610;28;20077;-46
2023/03/28 05:40:20;;;;;;;7.40;1.73;;;2.00;89.20;;;;;;5032758;28;20026;-46
2023/03/28 05:42:47;;;;;;;6.45;1.90;;;2.00;89.20;;;;;;5050374;28;20476;-46
2023/03/28 05:45:18;;;;;;;9.27;2.20;;;2.00;89.10;;;;;;5049857;28;20048;-48
2023/03/28 05:47:48;;;;;;;10.45;2.78;;;2.00;89.40;;;;;;5047527;28;20033;-48
2023/03/28 05:50:17;;;;;;;5.80;1.92;;;2.00;89.30;;;;;;5047604;28;20033;-46
2023/03/28 05:52:43;;;;;;;10.23;2.03;;;2.00;89.40;;;;;;5032474;28;20026;-46
2023/03/28 05:55:12;;;;;;;10.35;3.22;;;2.10;89.30;;;;;;5033621;28;20026;-46
2023/03/28 05:57:37;;;;;;;4.93;1.73;;;2.20;89.40;;;;;;5036570;28;20033;-46
2023/03/28 06:00:13;;;;;;;7.38;1.67;;;2.20;89.50;;;;;;5035629;28;20040;-47
2023/03/28 06:02:42;;;;;;;10.45;1.58;;;2.40;89.50;;;;;;5035511;28;20029;-49
2023/03/28 06:05:13;;;;;;;11.27;3.22;;;2.40;89.20;;;;;;5036325;28;20021;-46
2023/03/28 06:07:42;;;;;;;7.57;1.95;;;2.50;89.30;;;;;;5036310;28;20029;-48
2023/03/28 06:10:11;;;;;;;14.25;2.97;;;2.60;89.20;;;;;;5056211;28;20032;-51
2023/03/28 06:12:42;;;;;;;7.93;2.35;;;2.70;89.10;;;;;;5041647;28;20017;-48
2023/03/28 06:15:10;;;;;;;15.00;2.83;;;2.80;89.00;;;;;;5051712;28;20037;-50
2023/03/28 06:17:37;;;;;;;7.07;2.67;;;2.90;89.10;;;;;;5033057;28;20049;-46
2023/03/28 06:20:05;;;;;;;7.43;2.55;;;3.00;88.80;;;;;;5035076;28;20033;-47
2023/03/28 06:22:31;;;;;;;11.68;1.70;;;3.10;88.90;;;;;;5036218;28;20451;-47
2023/03/28 06:24:59;;;;;;;9.00;2.15;;;3.10;88.70;;;;;;5035704;28;20154;-48
2023/03/28 06:27:31;;;;;;;8.60;2.05;;;3.20;88.60;;;;;;5035818;28;20429;-46
2023/03/28 06:29:59;;;;;;;7.47;2.08;;;3.20;88.60;;;;;;5036093;28;20025;-48
2023/03/28 06:32:25;;;;;;;12.70;2.78;;;3.10;88.60;;;;;;5046318;28;20033;-48
2023/03/28 06:34:51;;;;;;;9.38;2.28;;;3.20;88.70;;;;;;5055787;28;20029;-50
2023/03/28 06:37:17;;;;;;;9.23;2.08;;;3.30;88.70;;;;;;5054577;28;20033;-47
2023/03/28 06:39:49;;;;;;;10.52;2.20;;;3.30;88.70;;;;;;5037193;28;20055;-48
2023/03/28 06:42:17;;;;;;;9.25;2.30;;;3.30;88.70;;;;;;5035965;28;20033;-49
2023/03/28 06:44:44;;;;;;;6.70;1.63;;;3.40;88.80;;;;;;5035838;28;20021;-50
2023/03/28 06:47:12;;;;;;;11.73;2.42;;;3.40;89.00;;;;;;5050095;28;20035;-52
2023/03/28 06:49:40;;;;;;;7.85;2.03;;;3.60;89.10;;;;;;5055409;28;20025;-47
2023/03/28 06:52:07;;;;;;;13.85;3.17;;;3.80;89.20;;;;;;5050330;28;20029;-45
2023/03/28 06:54:34;;;;;;;14.77;2.53;;;4.00;89.20;;;;;;5035818;28;20028;-47
2023/03/28 06:57:01;;;;;;;13.88;3.33;;;4.20;89.00;;;;;;5035415;28;20029;-46
2023/03/28 06:59:28;;;;;;;6.20;2.17;;;4.30;88.60;;;;;;5035050;28;20025;-47
2023/03/28 07:01:56;;;;;;;12.55;3.00;;;4.40;88.30;;;;;;5035467;28;20034;-46
2023/03/28 07:04:21;;;;;;;11.00;2.53;;;4.40;88.10;;;;;;5035519;28;20055;-45
2023/03/28 07:06:48;;;;;;;16.35;2.83;;;4.30;87.50;;;;;;5033982;28;20435;-49
2023/03/28 07:09:14;;;;;;;12.73;2.17;;;4.20;87.20;;;;;;5035079;28;20450;-46
2023/03/28 07:11:41;;;;;;;9.10;2.40;;;4.10;87.10;;;;;;5035201;28;20041;-46
2023/03/28 07:14:12;;;;;;;11.13;3.00;;;4.00;86.90;;;;;;5035024;28;20025;-49
2023/03/28 07:16:39;;;;;;;10.88;3.25;;;4.10;87.10;;;;;;5034941;28;20063;-48
2023/03/28 07:19:04;;;;;;;17.23;3.15;;;4.20;87.30;;;;;;5033957;28;20036;-47
2023/03/28 07:21:31;;;;;;;9.50;2.90;;;4.40;87.40;;;;;;5034916;28;20029;-47
2023/03/28 07:23:58;;;;;;;11.77;2.95;;;4.60;87.60;;;;;;5034938;28;20383;-48
2023/03/28 07:26:26;;;;;;;14.57;2.67;;;4.80;87.50;;;;;;5033486;28;20026;-48
2023/03/28 07:28:56;;;;;;;13.90;3.08;;;4.90;87.10;;;;;;5034716;28;20030;-45
2023/03/28 07:31:24;;;;;;;18.92;3.53;;;5.10;87.10;;;;;;5034146;28;20056;-45
2023/03/28 07:33:51;;;;;;;10.43;3.10;;;5.30;86.60;;;;;;5034021;28;20362;-47
2023/03/28 07:36:20;;;;;;;18.13;2.67;;;5.50;86.00;;;;;;5038656;28;20033;-45
2023/03/28 07:38:47;;;;;;;12.95;2.70;;;5.90;85.80;;;;;;5036887;28;20048;-43
2023/03/28 07:41:16;;;;;;;10.90;3.40;;;6.10;84.90;;;;;;5053964;28;20029;-44
2023/03/28 07:43:49;;;;;;;13.77;2.20;;;6.30;82.80;;;;;;5040578;28;20037;-45
2023/03/28 07:46:16;;;;;;;9.27;2.30;;;6.80;82.10;;;;;;5034690;28;20033;-42
2023/03/28 07:48:45;;;;;;;13.88;2.20;;;7.30;81.10;;;;;;5033716;28;20068;-42
2023/03/28 07:51:12;;;;;;;17.05;2.58;;;7.90;78.70;;;;;;5017112;28;20087;-42
2023/03/28 07:53:39;;;;;;;8.77;2.63;;;8.20;75.90;;;;;;5034297;28;20387;-42
2023/03/28 07:56:11;;;;;;;8.85;1.92;;;8.00;74.40;;;;;;5049737;28;20438;-44
2023/03/28 07:58:39;;;;;;;8.68;1.77;;;7.80;74.50;;;;;;5033104;28;20038;-42
2023/03/28 08:01:09;;;;;;;8.82;2.30;;;7.50;75.30;;;;;;5034469;28;20021;-41
2023/03/28 08:03:37;;;;;;;12.60;5.15;;;7.30;76.30;;;;;;5033769;28;20485;-41
2023/03/28 08:06:10;;;;;;;8.63;2.13;;;7.00;76.70;;;;;;5033199;28;20044;-41
2023/03/28 08:08:37;;;;;;;6.18;1.75;;;6.80;77.40;;;;;;5033180;28;20022;-43
2023/03/28 08:11:04;;;;;;;13.60;2.25;;;6.60;77.90;;;;;;5033984;28;20875;-41
2023/03/28 08:13:32;;;;;;;13.40;2.80;;;6.40;78.30;;;;;;5034213;28;20037;-41
2023/03/28 08:15:58;;;;;;;9.90;2.40;;;6.20;78.90;;;;;;5032977;28;20074;-40
2023/03/28 08:18:25;;;;;;;7.45;1.92;;;6.30;79.40;;;;;;5033290;28;20450;-42
2023/03/28 08:20:57;;;;;;;17.20;2.92;;;6.80;79.40;;;;;;5033041;28;20059;-43
2023/03/28 08:23:26;;;;;;;13.18;1.95;;;7.20;78.20;;;;;;5032406;28;20124;-43
2023/03/28 08:26:04;;;;;;;12.73;2.63;;;7.80;78.00;;;;;;5034045;28;20183;-42
2023/03/28 08:28:34;;;;;;;10.00;2.22;;;8.00;75.40;;;;;;5033059;28;20075;-42
2023/03/28 08:31:02;;;;;;;;;;;8.40;74.90;;;;;;5033881;28;20048;-43
2023/03/28 08:33:31;;;;;;;9.82;2.47;;;8.60;73.80;;;;;;5049413;28;20273;-42
2023/03/28 08:35:59;;;;;;;9.32;2.10;;;8.80;72.70;;;;;;5050176;28;20037;-45
2023/03/28 08:38:24;;;;;;;11.15;2.67;;;8.90;71.70;;;;;;5046173;28;20030;-43
2023/03/28 08:41:47;;;;;;;8.40;2.25;;;8.80;69.80;;;;;;5033681;28;20032;-43
2023/03/28 08:44:36;;;;;;;9.35;2.13;;;8.60;70.80;;;;;;4972827;28;20136;-43
2023/03/28 08:47:10;;;;;;;5.63;1.30;;;8.40;70.60;;;;;;4973488;28;20042;-43
2023/03/28 08:49:56;;;;;;;11.73;1.88;;;8.70;70.40;;;;;;4976365;28;20069;-45
2023/03/28 08:52:24;;;;;;;10.55;2.05;;;9.20;68.90;;;;;;4974369;28;20148;-43
2023/03/28 08:55:26;;;;;;;12.57;1.90;;;9.10;66.30;;;;;;4956486;28;20049;-44
2023/03/28 08:57:57;;;;;;;7.15;1.80;;;9.70;67.90;;;;;;4945725;28;20054;-46
2023/03/28 09:00:35;;;;;;;11.80;2.60;;;10.00;63.60;;;;;;4972238;28;20062;-48
2023/03/28 09:03:12;;;;;;;7.47;1.65;;;10.30;64.70;;;;;;4991846;28;20027;-44
2023/03/28 09:06:06;;;;;;;6.55;2.15;;;10.40;56.90;;;;;;4975973;28;20050;-44
2023/03/28 09:08:59;;;;;;;14.85;2.00;;;10.30;57.80;;;;;;4975226;28;20085;-44
2023/03/28 09:11:28;;;;;;;4.60;1.60;;;10.20;56.60;;;;;;4978245;28;20043;-44
2023/03/28 09:14:18;;;;;;;5.55;1.60;;;10.00;58.50;;;;;;4972348;28;20027;-44
2023/03/28 09:16:59;;;;;;;6.03;1.45;;;10.20;58.50;;;;;;4956047;28;20454;-46
2023/03/28 09:20:11;;;;;;;6.82;1.60;;;9.90;57.50;;;;;;5036789;28;20468;-47
2023/03/28 09:23:02;;;;;;;6.18;1.70;;;9.90;57.60;;;;;;5052894;28;20032;-46
2023/03/28 09:25:43;;;;;;;7.28;1.50;;;10.00;54.40;;;;;;5049955;28;20056;-47
2023/03/28 09:28:46;;;;;;;6.38;1.52;;;10.20;57.70;;;;;;5052757;28;20033;-48
2023/03/28 09:31:16;;;;;;;9.05;1.60;;;9.90;55.20;;;;;;5041805;28;20387;-44
2023/03/28 09:33:47;;;;;;;10.77;2.35;;;9.20;57.60;;;;;;5032790;28;20145;-46
2023/03/28 09:36:21;;;;;;;8.57;2.05;;;8.60;57.80;;;;;;5047974;28;20127;-45
2023/03/28 09:39:22;;;;;;;7.85;2.15;;;8.10;57.80;;;;;;5018460;28;20037;-44
2023/03/28 09:42:26;;;;;;;8.75;1.65;;;8.20;59.90;;;;;;5028075;28;20045;-44
2023/03/28 09:45:17;;;;;;;6.65;1.67;;;8.10;59.50;;;;;;5052201;28;20120;-44
2023/03/28 09:47:48;;;;;;;7.47;1.80;;;8.60;60.50;;;;;;5049721;28;20041;-45
2023/03/28 09:50:17;;;;;;;10.20;1.60;;;9.40;58.80;;;;;;5032442;28;20538;-44
2023/03/28 09:52:46;;;;;;;7.97;3.25;;;9.70;56.50;;;;;;5048297;28;20049;-46
2023/03/28 09:55:22;;;;;;;7.20;1.80;;;9.20;55.00;;;;;;5031617;28;20107;-44
2023/03/28 09:58:18;;;;;;;5.03;1.60;;;8.80;57.00;;;;;;5032861;28;20393;-48
2023/03/28 10:00:53;;;;;;;4.45;1.45;;;8.50;57.70;;;;;;5038223;28;20040;-47
2023/03/28 10:03:28;;;;;;;8.25;1.95;;;8.20;57.70;;;;;;5052515;28;20469;-44
2023/03/28 10:06:18;;;;;;;9.02;2.40;;;8.00;58.90;;;;;;5033281;28;20112;-44
2023/03/28 10:08:45;;;;;;;10.10;1.67;;;7.90;59.30;;;;;;5023700;28;20033;-44
2023/03/28 10:11:30;;;;;;;7.63;1.70;;;7.90;60.00;;;;;;5032413;28;20694;-48
2023/03/28 10:13:57;;;;;;;8.38;2.55;;;8.20;60.30;;;;;;5032672;28;20060;-45
2023/03/28 10:16:32;;;;;;;20.17;9.00;;;8.50;59.20;;;;;;5032351;28;20029;-49
2023/03/28 10:18:58;;;;;;;10.52;3.50;;;9.40;59.50;;;;;;5031285;28;20079;-45
2023/03/28 10:21:37;;;;;;;5.32;1.45;;;10.20;54.10;;;;;;5032171;28;20034;-49
2023/03/28 10:24:07;;;;;;;10.02;1.70;;;10.60;54.30;;;;;;5031807;28;20080;-47
2023/03/28 10:26:33;;;;;;;8.60;2.00;;;10.20;53.70;;;;;;5031761;28;20041;-48
2023/03/28 10:29:03;;;;;;;9.98;2.30;;;9.90;55.70;;;;;;5030969;28;20037;-47
2023/03/28 10:31:31;;;;;;;5.78;1.42;;;9.60;58.40;;;;;;5030693;28;20052;-45
2023/03/28 10:34:02;;;;;;;7.18;1.80;;;9.40;59.20;;;;;;5031024;28;20120;-47
2023/03/28 10:36:42;;;;;;;7.70;1.92;;;9.20;58.80;;;;;;5030845;28;20469;-46
2023/03/28 10:39:32;;;;;;;9.95;1.95;;;9.00;58.90;;;;;;5032060;28;20048;-51
2023/03/28 10:42:11;;;;;;;9.38;1.80;;;9.00;59.80;;;;;;5034994;28;20517;-46
2023/03/28 10:44:39;;;;;;;8.48;1.70;;;8.90;58.90;;;;;;5035641;28;20418;-51
2023/03/28 10:47:18;;;;;;;11.27;2.15;;;8.70;60.10;;;;;;5035453;28;20033;-54
2023/03/28 10:50:02;;;;;;;8.65;2.45;;;8.50;61.00;;;;;;5033084;28;20415;-51
2023/03/28 10:52:53;;;;;;;8.98;1.65;;;8.50;61.70;;;;;;5035403;28;20017;-54
2023/03/28 10:55:27;;;;;;;8.23;2.08;;;8.50;62.10;;;;;;5034626;28;20115;-49
2023/03/28 10:58:30;;;;;;;6.68;1.92;;;8.40;60.60;;;;;;5052519;28;20110;-54
2023/03/28 11:01:18;;;;;;;7.38;1.30;;;8.20;58.00;;;;;;5051520;28;20025;-54
2023/03/28 11:04:21;;;;;;;7.85;1.48;;;8.40;60.30;;;;;;5035158;28;20426;-54
2023/03/28 11:07:26;;;;;;;4.07;1.50;;;8.40;61.80;;;;;;5035209;28;20025;-51
2023/03/28 11:09:58;;;;;;;4.60;1.55;;;8.70;61.70;;;;;;5035359;28;20339;-48
2023/03/28 11:12:53;;;;;;;7.22;1.65;;;8.60;60.20;;;;;;5034941;28;20018;-48
2023/03/28 11:15:44;;;;;;;8.02;1.77;;;8.80;59.70;;;;;;5034925;28;20051;-54
2023/03/28 11:18:18;;;;;;;5.38;1.15;;;8.70;61.00;;;;;;5034778;28;20032;-50
2023/03/28 11:21:02;;;;;;;8.98;1.67;;;8.80;60.70;;;;;;5052728;28;20485;-49
2023/03/28 11:23:52;;;;;;;10.23;1.67;;;8.70;61.10;;;;;;5054653;28;20053;-48
2023/03/28 11:26:38;;;;;;;8.43;2.03;;;8.50;62.00;;;;;;5042071;28;20365;-48
2023/03/28 11:29:23;;;;;;;12.77;2.10;;;8.40;62.20;;;;;;5039629;28;20036;-48
2023/03/28 11:32:17;;;;;;;7.25;1.75;;;8.20;62.40;;;;;;5053790;28;20414;-48
2023/03/28 11:35:14;;;;;;;8.57;1.73;;;8.10;62.00;;;;;;5034913;28;20026;-48
2023/03/28 11:38:15;;;;;;;6.00;1.40;;;7.90;61.50;;;;;;5033555;28;20083;-51
2023/03/28 11:41:14;;;;;;;3.72;1.70;;;7.90;61.90;;;;;;5034557;28;20718;-48
2023/03/28 11:43:55;;;;;;;8.95;1.70;;;8.20;62.70;;;;;;5034609;28;20512;-46
2023/03/28 11:46:42;;;;;;;5.68;1.35;;;8.40;63.00;;;;;;5034581;28;20065;-46
2023/03/28 11:49:37;;;;;;;8.60;2.55;;;8.40;61.00;;;;;;5054217;28;20170;-45
2023/03/28 11:52:40;;;;;;;3.67;0.85;;;8.70;61.70;;;;;;5038827;28;20064;-46
2023/03/28 11:55:14;;;;;;;10.50;1.80;;;8.90;61.30;;;;;;5013246;28;20052;-45
2023/03/28 11:58:00;;;;;;;6.65;1.17;;;8.90;61.00;;;;;;5034162;28;20418;-45
2023/03/28 12:00:44;;;;;;;5.57;1.42;;;8.90;60.50;;;;;;5037372;28;20025;-45
2023/03/28 12:03:36;;;;;;;4.43;1.40;;;8.90;59.20;;;;;;5053496;28;20397;-48
2023/03/28 12:06:21;;;;;;;10.70;2.17;;;8.90;59.60;;;;;;5054054;28;20124;-46
2023/03/28 12:09:35;;;;;;;8.13;1.80;;;8.90;60.60;;;;;;5019312;28;20071;-49
2023/03/28 12:12:37;;;;;;;7.63;2.17;;;9.00;59.50;;;;;;5018081;28;20117;-46
2023/03/28 12:15:20;;;;;;;7.97;1.65;;;8.90;59.10;;;;;;4973123;28;20488;-45
2023/03/28 12:17:55;;;;;;;7.75;2.10;;;9.00;58.90;;;;;;4956787;28;20089;-46
2023/03/28 12:21:01;;;;;;;6.18;1.80;;;8.90;58.10;;;;;;4956992;28;20030;-50
2023/03/28 12:24:05;;;;;;;7.75;2.10;;;9.00;58.30;;;;;;4971109;28;20070;-52
2023/03/28 12:26:50;;;;;;;11.10;1.63;;;9.20;58.40;;;;;;4959448;28;20347;-50
2023/03/28 12:29:46;;;;;;;9.27;2.15;;;9.00;59.10;;;;;;4982142;28;20125;-54
2023/03/28 12:32:49;;;;;;;4.75;1.40;;;8.80;58.70;;;;;;4963966;28;20133;-49
2023/03/28 12:35:38;;;;;;;5.82;1.80;;;8.90;59.90;;;;;;4974878;28;21721;-53
2023/03/28 12:38:57;;;;;;;4.25;1.00;;;8.70;57.80;;;;;;4956248;28;20042;-48
2023/03/28 12:41:29;;;;;;;5.85;1.52;;;8.50;58.00;;;;;;4933581;28;20035;-48
2023/03/28 12:44:23;;;;;;;6.95;1.75;;;8.50;59.40;;;;;;4967913;28;20466;-51
2023/03/28 12:47:13;;;;;;;11.38;2.00;;;8.50;59.40;;;;;;4978656;28;20157;-50
2023/03/28 12:49:56;;;;;;;5.70;2.45;;;8.40;59.50;;;;;;5010876;28;20122;-48
2023/03/28 12:52:31;;;;;;;7.13;1.48;;;8.40;59.70;;;;;;5013419;28;20117;-51
2023/03/28 12:55:30;;;;;;;9.75;1.48;;;8.30;59.20;;;;;;5012335;28;20076;-51
2023/03/28 12:58:29;;;;;;;7.88;1.90;;;8.10;60.80;;;;;;5013911;28;20088;-50
2023/03/28 13:01:19;;;;;;;6.18;1.65;;;8.00;61.70;;;;;;5012239;28;20026;-47
2023/03/28 13:04:02;;;;;;;5.60;1.27;;;8.00;62.10;;;;;;5013398;28;20029;-48
2023/03/28 13:06:48;;;;;;;5.03;1.20;;;8.10;61.30;;;;;;5030204;28;20061;-49
2023/03/28 13:09:39;;;;;;;3.63;1.08;;;8.20;62.20;;;;;;5028046;28;20037;-52
2023/03/28 13:12:38;;;;;;;6.30;2.65;;;8.40;61.90;;;;;;5012089;28;20053;-53
2023/03/28 13:15:34;;;;;;;7.35;1.50;;;8.50;62.70;;;;;;5012840;28;20026;-54
2023/03/28 13:18:22;;;;;;;4.78;1.27;;;8.70;61.80;;;;;;5012993;28;20033;-52
2023/03/28 13:21:03;;;;;;;6.45;1.67;;;8.90;61.10;;;;;;5013204;28;20451;-48
2023/03/28 13:23:45;;;;;;;4.13;1.50;;;9.10;60.40;;;;;;4995606;28;20100;-51
2023/03/28 13:26:18;;;;;;;3.55;1.55;;;9.20;61.40;;;;;;5032382;28;20048;-47
2023/03/28 13:28:46;;;;;;;6.38;1.40;;;9.30;60.50;;;;;;5032348;28;20060;-48
2023/03/28 13:31:22;;;;;;;6.82;1.45;;;9.30;59.30;;;;;;5048299;28;20057;-53
2023/03/28 13:33:52;;;;;;;5.63;1.17;;;9.10;57.30;;;;;;5041761;28;20036;-48
2023/03/28 13:36:36;;;;;;;6.15;1.77;;;8.90;57.80;;;;;;5035370;28;20029;-51
2023/03/28 13:39:40;;;;;;;3.17;1.25;;;8.90;58.10;;;;;;5053892;28;20723;-51
2023/03/28 13:42:28;;;;;;;4.63;1.40;;;8.80;59.20;;;;;;5044434;28;20029;-50